Time;durP1;ratioP1;P1;durP2;ratioP2;P2;SDS_P1;SDS_P2;PMS_P1;PMS_P2;Temp;Humidity;BMP_temperature;BMP_pressure;BME280_temperature;BME280_humidity;BME280_pressure;Samples;Min_cycle;Max_cycle;Signal;HPM_P1;HPM_P2
2022/12/26 00:00:29;;;;;;;27.50;22.48;;;8.70;99.90;;;;;;5069850;28;20036;-76
2022/12/26 00:02:54;;;;;;;36.33;24.90;;;8.70;99.90;;;;;;5066197;28;20501;-76
2022/12/26 00:05:20;;;;;;;31.90;23.38;;;8.70;99.90;;;;;;5065449;28;20048;-76
2022/12/26 00:07:45;;;;;;;27.92;21.95;;;8.70;99.90;;;;;;5083460;28;20037;-75
2022/12/26 00:10:11;;;;;;;26.90;21.58;;;8.70;99.90;;;;;;5088275;28;20036;-75
2022/12/26 00:12:37;;;;;;;24.02;20.33;;;8.70;99.90;;;;;;5066403;28;20404;-75
2022/12/26 00:15:03;;;;;;;25.23;20.45;;;8.70;99.90;;;;;;5086825;28;20487;-75
2022/12/26 00:17:29;;;;;;;27.98;21.73;;;8.70;99.90;;;;;;5070698;28;20048;-76
2022/12/26 00:19:55;;;;;;;31.20;22.25;;;8.70;99.90;;;;;;5084247;28;20403;-75
2022/12/26 00:22:20;;;;;;;29.77;22.48;;;8.70;99.90;;;;;;5067196;28;20116;-75
2022/12/26 00:24:46;;;;;;;32.38;22.55;;;8.70;99.90;;;;;;5084362;28;20460;-75
2022/12/26 00:27:12;;;;;;;23.20;19.90;;;8.80;99.90;;;;;;5101156;28;20038;-75
2022/12/26 00:29:37;;;;;;;26.70;20.33;;;8.70;99.90;;;;;;5087765;28;20047;-75
2022/12/26 00:32:03;;;;;;;22.88;18.48;;;8.70;99.90;;;;;;5088342;28;20044;-75
2022/12/26 00:34:29;;;;;;;21.80;18.88;;;8.70;99.90;;;;;;5067021;28;20040;-75
2022/12/26 00:36:54;;;;;;;22.92;18.67;;;8.70;99.90;;;;;;5070118;28;20044;-75
2022/12/26 00:39:20;;;;;;;22.95;18.17;;;8.80;99.90;;;;;;5066463;28;20028;-75
2022/12/26 00:41:45;;;;;;;30.80;20.63;;;8.80;99.90;;;;;;5083810;28;20048;-75
2022/12/26 00:44:11;;;;;;;22.27;17.75;;;8.70;99.90;;;;;;5074738;28;20039;-76
2022/12/26 00:46:37;;;;;;;22.20;17.98;;;8.70;99.90;;;;;;5067995;28;20419;-75
2022/12/26 00:49:03;;;;;;;23.30;18.75;;;8.70;99.90;;;;;;5091566;28;20478;-76
2022/12/26 00:51:29;;;;;;;22.88;18.10;;;8.70;99.90;;;;;;5070039;28;20056;-75
2022/12/26 00:53:54;;;;;;;25.92;20.17;;;8.80;99.90;;;;;;5068765;28;20492;-75
2022/12/26 00:56:20;;;;;;;30.88;20.75;;;8.80;99.90;;;;;;5087791;28;20051;-75
2022/12/26 00:58:46;;;;;;;22.33;17.67;;;8.80;99.90;;;;;;5085853;28;20040;-75
2022/12/26 01:01:15;;;;;;;22.55;17.85;;;8.80;99.90;;;;;;5085383;28;20040;-75
2022/12/26 01:03:42;;;;;;;21.27;17.27;;;8.70;99.90;;;;;;5065999;28;20134;-75
2022/12/26 01:06:08;;;;;;;22.58;17.90;;;8.70;99.90;;;;;;5100614;28;20122;-75
2022/12/26 01:08:34;;;;;;;22.58;17.80;;;8.80;99.90;;;;;;5080824;28;20059;-75
2022/12/26 01:11:08;;;;;;;27.58;19.92;;;8.80;99.90;;;;;;5064757;28;20127;-75
2022/12/26 01:13:34;;;;;;;28.15;19.10;;;8.80;99.90;;;;;;5082889;28;20044;-75
2022/12/26 01:16:00;;;;;;;25.98;19.35;;;8.80;99.90;;;;;;5084779;28;20044;-76
2022/12/26 01:18:26;;;;;;;26.75;20.85;;;8.80;99.90;;;;;;5084416;28;20036;-75
2022/12/26 01:20:58;;;;;;;29.25;21.00;;;8.80;99.90;;;;;;5082626;28;20052;-76
2022/12/26 01:23:26;;;;;;;31.80;22.67;;;8.80;99.90;;;;;;5066989;28;20483;-75
2022/12/26 01:25:52;;;;;;;42.10;23.55;;;8.80;99.90;;;;;;5081570;28;20038;-75
2022/12/26 01:28:17;;;;;;;28.65;21.17;;;8.80;99.90;;;;;;5081626;28;20388;-75
2022/12/26 01:30:43;;;;;;;23.98;18.52;;;8.70;99.90;;;;;;5065378;28;20048;-76
2022/12/26 01:33:09;;;;;;;24.70;17.50;;;8.80;99.90;;;;;;5083109;28;20044;-75
2022/12/26 01:35:34;;;;;;;20.48;15.88;;;8.80;99.90;;;;;;5083864;28;20101;-75
2022/12/26 01:38:00;;;;;;;22.65;15.80;;;8.80;99.90;;;;;;5083433;28;20467;-77
2022/12/26 01:40:25;;;;;;;22.13;16.02;;;8.80;99.90;;;;;;5084489;28;20483;-78
2022/12/26 01:42:51;;;;;;;22.25;15.20;;;8.80;99.90;;;;;;5085106;28;20032;-78
2022/12/26 01:45:30;;;;;;;27.33;17.38;;;8.80;99.90;;;;;;5074099;28;20039;-78
2022/12/26 01:48:24;;;;;;;19.38;15.63;;;8.80;99.90;;;;;;5080029;28;20051;-78
2022/12/26 01:50:59;;;;;;;23.50;17.08;;;8.80;99.90;;;;;;5082767;28;20511;-78
2022/12/26 01:53:33;;;;;;;22.92;17.38;;;8.80;99.90;;;;;;5077589;28;20044;-77
2022/12/26 01:56:13;;;;;;;22.98;17.85;;;8.80;99.90;;;;;;5065719;28;20273;-77
2022/12/26 01:58:48;;;;;;;26.45;19.08;;;8.80;99.90;;;;;;5084345;28;20060;-78
2022/12/26 02:01:14;;;;;;;26.58;19.77;;;8.80;99.90;;;;;;5067707;28;20044;-78
2022/12/26 02:06:27;;;;;;;26.55;19.92;;;8.90;99.90;;;;;;5061961;28;20477;-77
2022/12/26 02:08:53;;;;;;;29.02;21.42;;;8.90;99.90;;;;;;5062887;28;20057;-78
2022/12/26 02:11:24;;;;;;;31.40;21.75;;;8.90;99.90;;;;;;5083563;28;20554;-78
2022/12/26 02:13:51;;;;;;;27.42;20.85;;;8.90;99.90;;;;;;5085491;28;20075;-78
2022/12/26 02:16:18;;;;;;;33.67;23.27;;;8.90;99.90;;;;;;5084798;28;20449;-78
2022/12/26 02:18:44;;;;;;;31.08;23.65;;;8.90;99.90;;;;;;5066250;28;20888;-78
2022/12/26 02:21:21;;;;;;;32.60;23.92;;;8.90;99.90;;;;;;5066800;28;20381;-77
2022/12/26 02:24:14;;;;;;;29.75;23.25;;;8.90;99.90;;;;;;5071576;28;20094;-77
2022/12/26 02:27:13;;;;;;;30.33;24.15;;;8.90;99.90;;;;;;5083017;28;20047;-78
2022/12/26 02:30:16;;;;;;;31.00;24.67;;;8.90;99.90;;;;;;5083446;28;20047;-77
2022/12/26 02:33:10;;;;;;;33.45;26.40;;;8.90;99.90;;;;;;5083038;28;20044;-77
2022/12/26 02:36:18;;;;;;;34.10;25.50;;;8.90;99.90;;;;;;5081022;28;20048;-78
2022/12/26 02:39:05;;;;;;;32.83;27.33;;;8.90;99.90;;;;;;5079983;28;20044;-78
2022/12/26 02:41:51;;;;;;;37.90;28.02;;;8.90;99.90;;;;;;5064150;28;20055;-78
2022/12/26 02:47:34;;;;;;;37.55;28.10;;;8.90;99.90;;;;;;5088476;28;20047;-77
2022/12/26 03:14:35;;;;;;;42.08;30.35;;;9.00;99.90;;;;;;5086993;28;20040;-77
2022/12/26 03:17:20;;;;;;;46.33;32.10;;;9.00;99.90;;;;;;5067268;28;20079;-77
2022/12/26 03:20:04;;;;;;;44.92;31.90;;;9.00;99.90;;;;;;5087545;28;20475;-77
2022/12/26 03:22:55;;;;;;;42.35;30.55;;;9.00;99.90;;;;;;5063985;28;20468;-77
2022/12/26 03:28:24;;;;;;;46.33;32.17;;;9.00;99.90;;;;;;5070027;28;20044;-77
2022/12/26 03:30:51;;;;;;;50.45;32.95;;;9.00;99.90;;;;;;5083546;28;20048;-77
2022/12/26 03:36:54;;;;;;;45.95;31.05;;;9.10;99.90;;;;;;5094730;27;20682;-77
2022/12/26 04:21:01;;;;;;;46.88;27.67;;;9.10;99.90;;;;;;5067792;28;20052;-77
2022/12/26 04:44:11;;;;;;;42.58;27.73;;;9.00;99.90;;;;;;5086558;28;20384;-77
2022/12/26 04:46:39;;;;;;;39.25;28.35;;;9.00;99.90;;;;;;5078484;28;20043;-78
2022/12/26 04:51:57;;;;;;;45.38;28.80;;;9.10;99.90;;;;;;5066600;28;20116;-78
2022/12/26 04:54:23;;;;;;;;;;;9.10;99.90;;;;;;5066544;28;20043;-78
2022/12/26 04:56:49;;;;;;;45.13;27.60;;;9.00;99.90;;;;;;5080565;28;19920;-78
2022/12/26 04:59:15;;;;;;;46.95;29.80;;;9.00;99.90;;;;;;5069212;28;20048;-78
2022/12/26 05:10:05;;;;;;;51.80;30.63;;;9.10;99.90;;;;;;5064075;28;20047;-77
2022/12/26 05:12:31;;;;;;;47.97;29.70;;;9.10;99.90;;;;;;5066300;28;20032;-77
2022/12/26 05:14:57;;;;;;;44.42;29.63;;;9.10;99.90;;;;;;5086152;28;20473;-78
2022/12/26 05:29:02;;;;;;;38.45;28.00;;;8.90;99.90;;;;;;5075134;28;19928;-78
2022/12/26 05:31:28;;;;;;;41.13;29.83;;;9.00;99.90;;;;;;5064371;28;20040;-77
2022/12/26 05:34:11;;;;;;;41.15;28.80;;;9.00;99.90;;;;;;5065813;28;20043;-77
2022/12/26 05:36:40;;;;;;;39.38;28.63;;;9.10;99.90;;;;;;5080417;28;20097;-78
2022/12/26 05:39:08;;;;;;;39.83;28.75;;;9.00;99.90;;;;;;5060544;28;20055;-78
2022/12/26 05:41:34;;;;;;;42.58;30.27;;;9.00;99.90;;;;;;5054970;28;20158;-78
2022/12/26 05:44:00;;;;;;;40.27;28.83;;;9.00;99.90;;;;;;5100882;28;20496;-78
2022/12/26 05:46:26;;;;;;;41.47;29.92;;;9.00;99.90;;;;;;5066913;28;20121;-78
2022/12/26 05:48:51;;;;;;;38.22;29.13;;;9.00;99.90;;;;;;5063315;28;20044;-78
2022/12/26 05:51:17;;;;;;;36.28;27.73;;;9.00;99.90;;;;;;5061355;28;20575;-78
2022/12/26 05:53:43;;;;;;;37.90;28.42;;;9.00;99.90;;;;;;5063648;28;20135;-78
2022/12/26 05:56:13;;;;;;;37.10;27.70;;;8.90;99.90;;;;;;5063158;28;20045;-78
2022/12/26 05:58:39;;;;;;;37.08;28.65;;;9.00;99.90;;;;;;5062956;28;20057;-78
2022/12/26 06:01:08;;;;;;;38.85;28.25;;;9.00;99.90;;;;;;5062966;28;20586;-78
2022/12/26 06:03:34;;;;;;;35.95;27.40;;;9.00;99.90;;;;;;5055738;28;20044;-78
2022/12/26 06:06:00;;;;;;;38.10;28.38;;;9.00;99.90;;;;;;5064334;28;20094;-78
2022/12/26 06:08:27;;;;;;;37.63;28.63;;;9.00;99.90;;;;;;5064488;28;20072;-77
2022/12/26 06:10:53;;;;;;;36.65;27.45;;;8.90;99.90;;;;;;5063044;28;20040;-78
2022/12/26 06:13:18;;;;;;;36.92;29.17;;;8.90;99.90;;;;;;5065901;28;20377;-78
2022/12/26 06:15:44;;;;;;;33.03;27.27;;;8.90;99.90;;;;;;5068008;28;20046;-78
2022/12/26 06:18:09;;;;;;;32.53;26.42;;;8.90;99.90;;;;;;5067157;28;20044;-78
2022/12/26 06:20:37;;;;;;;35.25;28.20;;;8.90;99.90;;;;;;5066300;28;21872;-78
2022/12/26 06:23:03;;;;;;;33.17;27.38;;;8.80;99.90;;;;;;5068355;28;20080;-78
2022/12/26 06:25:29;;;;;;;31.73;27.20;;;8.80;99.90;;;;;;5068123;28;20080;-78
2022/12/26 06:27:54;;;;;;;33.47;27.55;;;8.80;99.90;;;;;;5065669;28;20048;-78
2022/12/26 06:30:20;;;;;;;33.33;27.17;;;8.80;99.90;;;;;;5065375;28;20052;-78
2022/12/26 06:32:45;;;;;;;33.92;27.30;;;8.80;99.90;;;;;;5067122;28;20037;-78
2022/12/26 06:35:11;;;;;;;33.15;27.25;;;8.80;99.90;;;;;;5066459;28;20040;-78
2022/12/26 06:37:37;;;;;;;32.90;28.48;;;8.70;99.90;;;;;;5066290;28;20075;-78
2022/12/26 06:40:03;;;;;;;31.70;26.23;;;8.80;99.90;;;;;;5065441;28;20132;-78
2022/12/26 06:42:29;;;;;;;31.45;26.23;;;8.80;99.90;;;;;;5066981;28;20521;-78
2022/12/26 06:44:55;;;;;;;30.40;26.58;;;8.70;99.90;;;;;;5065814;28;20040;-78
2022/12/26 06:47:20;;;;;;;35.53;27.85;;;8.70;99.90;;;;;;5065864;28;20509;-78
2022/12/26 06:49:46;;;;;;;33.35;27.27;;;8.60;99.90;;;;;;5067211;28;20044;-76
2022/12/26 06:52:12;;;;;;;31.48;26.42;;;8.70;99.90;;;;;;5103861;27;20047;-78
2022/12/26 06:54:38;;;;;;;32.67;28.05;;;8.70;99.90;;;;;;5086283;28;20086;-77
2022/12/26 06:57:04;;;;;;;35.08;27.95;;;8.70;99.90;;;;;;5081304;28;20078;-78
2022/12/26 06:59:29;;;;;;;33.20;27.42;;;8.70;99.90;;;;;;5087557;28;20767;-78
2022/12/26 07:01:55;;;;;;;33.88;27.85;;;8.70;99.90;;;;;;5066362;28;20376;-78
2022/12/26 07:04:21;;;;;;;30.92;26.60;;;8.70;99.90;;;;;;5066912;28;20427;-78
2022/12/26 07:06:46;;;;;;;31.65;28.05;;;8.70;99.90;;;;;;5085579;28;20498;-78
2022/12/26 07:09:15;;;;;;;35.00;29.02;;;8.70;99.90;;;;;;5070863;28;20035;-78
2022/12/26 07:11:46;;;;;;;36.58;29.13;;;8.60;99.90;;;;;;5087197;28;20498;-78
2022/12/26 07:14:12;;;;;;;32.83;28.88;;;8.70;99.90;;;;;;5086186;28;20081;-78
2022/12/26 07:16:40;;;;;;;35.92;29.60;;;8.70;99.90;;;;;;5086692;28;20032;-78
2022/12/26 07:19:06;;;;;;;34.83;28.70;;;8.60;99.90;;;;;;5069175;28;20111;-78
2022/12/26 07:21:31;;;;;;;36.45;30.33;;;8.60;99.90;;;;;;5086366;28;20496;-78
2022/12/26 07:23:58;;;;;;;35.45;29.73;;;8.70;99.90;;;;;;5067678;28;20028;-77
2022/12/26 07:26:24;;;;;;;33.75;29.77;;;8.50;99.90;;;;;;5085618;28;20036;-78
2022/12/26 07:28:54;;;;;;;33.60;29.08;;;8.60;99.90;;;;;;5068206;28;20709;-78
2022/12/26 07:31:21;;;;;;;35.95;30.77;;;8.50;99.90;;;;;;5066871;28;20488;-78
2022/12/26 07:33:51;;;;;;;35.08;29.92;;;8.50;99.90;;;;;;5084407;28;20181;-77
2022/12/26 07:36:17;;;;;;;38.40;30.83;;;8.50;99.90;;;;;;5069350;28;20086;-78
2022/12/26 07:38:43;;;;;;;37.58;31.08;;;8.40;99.90;;;;;;5088215;28;20079;-78
2022/12/26 07:43:56;;;;;;;38.45;31.45;;;8.50;99.90;;;;;;5078391;28;20079;-78
2022/12/26 07:46:22;;;;;;;39.75;31.45;;;8.50;99.90;;;;;;5091964;28;20075;-76
2022/12/26 07:48:47;;;;;;;35.47;30.50;;;8.50;99.90;;;;;;5067695;28;20055;-81
2022/12/26 07:51:13;;;;;;;37.15;30.27;;;8.50;99.90;;;;;;5071190;28;20067;-79
2022/12/26 07:53:39;;;;;;;38.05;31.70;;;8.50;99.90;;;;;;5069638;28;20184;-74
2022/12/26 07:56:05;;;;;;;36.75;30.23;;;8.50;99.90;;;;;;5085842;28;20565;-76
2022/12/26 07:58:31;;;;;;;33.20;29.58;;;8.50;99.90;;;;;;5068073;28;20384;-77
2022/12/26 08:01:05;;;;;;;34.40;29.13;;;8.50;99.90;;;;;;5068806;28;20146;-75
2022/12/26 08:03:31;;;;;;;32.30;27.55;;;8.50;99.90;;;;;;5087186;28;20432;-78
2022/12/26 08:05:57;;;;;;;32.38;26.88;;;8.40;99.90;;;;;;5098911;28;20271;-76
2022/12/26 08:08:23;;;;;;;29.90;26.77;;;8.50;99.90;;;;;;5088700;28;20042;-74
2022/12/26 08:10:56;;;;;;;32.92;26.77;;;8.50;99.90;;;;;;5069699;28;20051;-75
2022/12/26 08:13:22;;;;;;;33.15;26.42;;;8.50;99.90;;;;;;5102995;28;20044;-76
2022/12/26 08:15:48;;;;;;;28.85;25.70;;;8.50;99.90;;;;;;5089751;28;20059;-75
2022/12/26 08:18:13;;;;;;;28.50;24.80;;;8.50;99.90;;;;;;5088608;28;20551;-76
2022/12/26 08:20:39;;;;;;;27.75;24.75;;;8.40;99.90;;;;;;5070727;28;20055;-76
2022/12/26 08:23:04;;;;;;;29.17;25.10;;;8.50;99.90;;;;;;5086397;28;20047;-73
2022/12/26 08:25:30;;;;;;;28.27;24.13;;;8.50;99.90;;;;;;5083850;28;20047;-74
2022/12/26 08:27:55;;;;;;;29.75;23.60;;;8.50;99.90;;;;;;5089004;28;20048;-75
2022/12/26 08:30:21;;;;;;;27.02;23.17;;;8.50;99.90;;;;;;5088473;28;20136;-73
2022/12/26 08:32:47;;;;;;;24.90;22.20;;;8.50;99.90;;;;;;5085901;28;20046;-74
2022/12/26 08:35:12;;;;;;;23.20;20.70;;;8.50;99.90;;;;;;5068771;28;20044;-74
2022/12/26 08:37:38;;;;;;;23.77;21.20;;;8.50;99.90;;;;;;5088019;28;20044;-75
2022/12/26 08:40:04;;;;;;;22.20;19.80;;;8.50;99.90;;;;;;5087416;28;20044;-72
2022/12/26 08:42:30;;;;;;;24.25;20.25;;;8.50;99.90;;;;;;5088392;28;20082;-72
2022/12/26 08:44:55;;;;;;;23.13;19.58;;;8.50;99.90;;;;;;5086576;28;20074;-71
2022/12/26 08:47:25;;;;;;;21.98;19.52;;;8.50;99.90;;;;;;5068560;28;20479;-69
2022/12/26 08:49:50;;;;;;;21.63;18.15;;;8.50;99.90;;;;;;5088687;28;20091;-70
2022/12/26 08:52:16;;;;;;;22.52;18.60;;;8.60;99.90;;;;;;5067062;28;20087;-70
2022/12/26 08:54:42;;;;;;;20.05;17.85;;;8.60;99.90;;;;;;5083924;28;20123;-70
2022/12/26 08:57:08;;;;;;;18.35;16.35;;;8.60;99.90;;;;;;5088331;28;20126;-71
2022/12/26 08:59:34;;;;;;;18.38;16.33;;;8.60;99.90;;;;;;5087719;28;20048;-71
2022/12/26 09:01:59;;;;;;;19.35;16.55;;;8.70;99.90;;;;;;5068106;28;20097;-71
2022/12/26 09:04:25;;;;;;;23.77;16.67;;;8.70;99.90;;;;;;5065684;28;20036;-71
2022/12/26 09:06:51;;;;;;;17.95;16.15;;;8.70;99.90;;;;;;5087961;28;20576;-75
2022/12/26 09:09:16;;;;;;;18.10;16.10;;;8.80;99.90;;;;;;5068914;28;20127;-73
2022/12/26 09:11:42;;;;;;;20.40;15.90;;;8.90;99.90;;;;;;5086568;28;20501;-74
2022/12/26 09:14:08;;;;;;;20.48;15.10;;;8.90;99.90;;;;;;5069455;28;20039;-77
2022/12/26 09:16:41;;;;;;;17.58;14.73;;;9.00;99.90;;;;;;5063491;28;20086;-73
2022/12/26 09:19:09;;;;;;;18.50;14.32;;;9.10;99.90;;;;;;5065571;28;20085;-74
2022/12/26 09:21:34;;;;;;;15.45;13.60;;;9.10;99.90;;;;;;5083358;28;20055;-74
2022/12/26 09:24:04;;;;;;;14.23;12.45;;;9.20;99.90;;;;;;5066908;28;20040;-74
2022/12/26 09:26:30;;;;;;;15.88;12.50;;;9.20;99.90;;;;;;5087484;28;20051;-73
2022/12/26 09:28:56;;;;;;;15.30;12.77;;;9.30;99.90;;;;;;5087416;28;20146;-73
2022/12/26 09:31:26;;;;;;;13.98;12.48;;;9.30;99.90;;;;;;5087362;28;20494;-73
2022/12/26 09:33:54;;;;;;;14.52;11.63;;;9.30;99.90;;;;;;5067536;28;20036;-73
2022/12/26 09:36:22;;;;;;;19.77;12.05;;;9.40;99.90;;;;;;5060924;28;20051;-77
2022/12/26 09:38:49;;;;;;;16.45;12.07;;;9.30;99.90;;;;;;5087286;28;20568;-75
2022/12/26 09:41:23;;;;;;;15.73;11.57;;;9.40;99.90;;;;;;5085623;28;20036;-74
2022/12/26 09:44:14;;;;;;;18.52;11.95;;;9.40;99.90;;;;;;5087586;28;20518;-75
2022/12/26 09:46:55;;;;;;;13.45;11.05;;;9.50;99.90;;;;;;5067258;28;20135;-75
2022/12/26 09:49:29;;;;;;;14.48;10.45;;;9.50;99.90;;;;;;5091207;28;20044;-76
2022/12/26 09:52:00;;;;;;;14.13;10.02;;;9.50;99.90;;;;;;5061150;28;20524;-77
2022/12/26 09:54:32;;;;;;;15.25;10.00;;;9.50;99.90;;;;;;5049865;28;20116;-77
2022/12/26 09:57:00;;;;;;;13.95;9.57;;;9.50;99.90;;;;;;5046671;28;20484;-75
2022/12/26 09:59:26;;;;;;;14.40;9.40;;;9.50;99.90;;;;;;5050997;28;20069;-76
2022/12/26 10:01:52;;;;;;;14.07;9.40;;;9.60;99.90;;;;;;5051722;28;20142;-71
2022/12/26 10:04:23;;;;;;;13.00;9.40;;;9.60;99.90;;;;;;5049840;28;20041;-71
2022/12/26 10:07:29;;;;;;;13.07;8.30;;;9.60;99.90;;;;;;5050251;28;20045;-72
2022/12/26 10:09:55;;;;;;;11.97;7.70;;;9.60;99.90;;;;;;5018007;28;20421;-71
2022/12/26 10:12:33;;;;;;;10.75;7.60;;;9.70;99.90;;;;;;5044376;28;20307;-76
2022/12/26 10:15:17;;;;;;;11.50;7.03;;;9.70;99.90;;;;;;5049309;28;20103;-76
2022/12/26 10:17:46;;;;;;;9.95;6.72;;;9.70;99.90;;;;;;5050271;28;20580;-73
2022/12/26 10:20:35;;;;;;;10.18;6.70;;;9.70;99.90;;;;;;5052054;28;20052;-74
2022/12/26 10:23:28;;;;;;;9.63;6.43;;;9.70;99.90;;;;;;5049332;28;20326;-72
2022/12/26 10:26:04;;;;;;;10.68;6.47;;;9.70;99.90;;;;;;5040942;28;20049;-74
2022/12/26 10:28:50;;;;;;;11.30;5.78;;;9.70;99.90;;;;;;5045092;28;20045;-77
2022/12/26 10:31:26;;;;;;;9.77;5.23;;;9.70;99.90;;;;;;5049922;28;20102;-78
2022/12/26 10:34:14;;;;;;;11.52;5.43;;;9.70;99.90;;;;;;5050299;28;20548;-77
2022/12/26 10:36:52;;;;;;;9.32;4.85;;;9.70;99.90;;;;;;5041552;28;20092;-77
2022/12/26 10:39:43;;;;;;;7.70;3.83;;;9.70;99.90;;;;;;5042798;28;20037;-75
2022/12/26 10:42:33;;;;;;;10.23;4.07;;;9.70;99.90;;;;;;5036655;28;20055;-75
2022/12/26 10:44:59;;;;;;;12.55;2.78;;;9.60;99.90;;;;;;5043791;28;20064;-75
2022/12/26 10:47:51;;;;;;;10.48;2.80;;;9.50;99.90;;;;;;5048188;28;20059;-76
2022/12/26 10:50:23;;;;;;;10.63;2.10;;;9.20;99.90;;;;;;5051565;28;20040;-76
2022/12/26 10:52:50;;;;;;;13.27;2.28;;;8.90;99.90;;;;;;5083481;28;20063;-75
2022/12/26 10:55:18;;;;;;;11.10;2.30;;;8.80;99.90;;;;;;5084938;28;20081;-73
2022/12/26 10:57:47;;;;;;;11.18;2.35;;;8.70;99.90;;;;;;5071164;28;20044;-79
2022/12/26 11:00:25;;;;;;;9.90;2.28;;;8.70;99.90;;;;;;5087995;28;20048;-76
2022/12/26 11:03:11;;;;;;;9.60;3.50;;;8.60;99.90;;;;;;5087601;28;20076;-75
2022/12/26 11:05:47;;;;;;;10.75;2.75;;;8.60;99.90;;;;;;5069668;28;20052;-75
2022/12/26 11:08:22;;;;;;;13.85;2.60;;;8.60;99.90;;;;;;5087918;28;20086;-76
2022/12/26 11:11:12;;;;;;;8.48;2.00;;;8.70;99.90;;;;;;5087004;28;20499;-74
2022/12/26 11:13:44;;;;;;;10.77;2.17;;;8.60;99.90;;;;;;5080725;28;20040;-75
2022/12/26 11:16:10;;;;;;;13.00;2.15;;;8.60;99.90;;;;;;5084337;28;20051;-76
2022/12/26 11:18:47;;;;;;;10.38;2.13;;;8.60;99.90;;;;;;5084847;28;20587;-75
2022/12/26 11:21:24;;;;;;;;;;;8.60;99.90;;;;;;5084437;28;20538;-75
2022/12/26 11:24:16;;;;;;;7.63;1.50;;;8.50;99.90;;;;;;5069646;28;19924;-76
2022/12/26 11:26:41;;;;;;;9.07;1.83;;;8.50;99.90;;;;;;5085580;28;20051;-74
2022/12/26 11:29:14;;;;;;;9.65;1.70;;;8.50;99.90;;;;;;5088166;28;20032;-75
2022/12/26 11:31:56;;;;;;;12.55;1.90;;;8.50;99.90;;;;;;5069846;28;20101;-76
2022/12/26 11:34:28;;;;;;;9.27;1.70;;;8.50;99.90;;;;;;5063427;28;20378;-77
2022/12/26 11:36:54;;;;;;;7.15;1.52;;;8.50;99.90;;;;;;5062897;28;20109;-78
2022/12/26 11:39:30;;;;;;;9.35;1.85;;;8.40;99.90;;;;;;5085710;28;20442;-76
2022/12/26 11:41:57;;;;;;;7.00;1.43;;;8.30;99.90;;;;;;5091738;28;20135;-77
2022/12/26 11:44:27;;;;;;;13.23;1.70;;;8.30;99.90;;;;;;5087811;28;20054;-75
2022/12/26 11:46:57;;;;;;;11.82;2.08;;;8.30;99.90;;;;;;5088905;28;20233;-74
2022/12/26 11:49:46;;;;;;;14.02;1.95;;;8.30;99.90;;;;;;5085587;28;20032;-76
2022/12/26 11:52:44;;;;;;;11.82;2.00;;;8.20;99.90;;;;;;5098759;28;20052;-74
2022/12/26 11:55:21;;;;;;;6.70;1.35;;;8.20;99.90;;;;;;5081518;28;20486;-74
2022/12/26 11:58:05;;;;;;;9.15;1.42;;;8.10;99.90;;;;;;5089371;28;20097;-78
2022/12/26 12:00:35;;;;;;;8.43;2.30;;;8.10;99.90;;;;;;5088820;28;20549;-74
2022/12/26 12:03:02;;;;;;;9.88;1.80;;;8.00;99.90;;;;;;5069745;28;20176;-75
2022/12/26 12:05:37;;;;;;;9.82;1.85;;;8.00;99.90;;;;;;5068440;28;20051;-75
2022/12/26 12:08:20;;;;;;;10.55;1.63;;;8.00;99.90;;;;;;5084475;28;20123;-76
2022/12/26 12:11:28;;;;;;;9.13;1.67;;;8.00;99.90;;;;;;5065188;28;20091;-75
2022/12/26 12:14:21;;;;;;;6.57;1.30;;;8.00;99.90;;;;;;5067299;28;20079;-78
2022/12/26 12:16:57;;;;;;;10.95;2.20;;;8.00;99.90;;;;;;5084372;28;20383;-74
2022/12/26 12:19:35;;;;;;;11.73;2.15;;;8.00;99.90;;;;;;5086644;28;20060;-76
2022/12/26 12:22:24;;;;;;;10.80;2.17;;;8.00;99.90;;;;;;5080541;28;20040;-72
2022/12/26 12:24:56;;;;;;;11.20;2.00;;;8.00;99.90;;;;;;5079172;28;20079;-72
2022/12/26 12:27:31;;;;;;;12.45;2.35;;;8.00;99.90;;;;;;5077563;28;20055;-72
2022/12/26 12:30:45;;;;;;;21.08;7.63;;;7.90;99.90;;;;;;5065705;28;20040;-77
2022/12/26 12:33:14;;;;;;;11.77;2.65;;;7.90;99.90;;;;;;5008797;28;20517;-76
2022/12/26 12:35:59;;;;;;;12.60;3.05;;;8.00;99.90;;;;;;5060551;28;20044;-77
2022/12/26 12:38:47;;;;;;;16.33;2.60;;;8.00;99.90;;;;;;5066536;28;20067;-77
2022/12/26 12:41:39;;;;;;;13.15;3.00;;;8.00;99.90;;;;;;5069044;28;20070;-74
2022/12/26 12:44:21;;;;;;;17.40;2.95;;;8.00;99.90;;;;;;5081278;28;20050;-80
2022/12/26 12:47:18;;;;;;;13.05;3.30;;;7.90;99.90;;;;;;5068147;28;20487;-77
2022/12/26 12:50:20;;;;;;;12.82;3.00;;;7.80;99.90;;;;;;5066307;28;20054;-77
2022/12/26 12:53:06;;;;;;;17.23;3.03;;;7.80;99.90;;;;;;5062088;28;20063;-77
2022/12/26 12:55:58;;;;;;;17.92;2.60;;;7.70;99.90;;;;;;5066573;28;20601;-72
2022/12/26 12:58:33;;;;;;;15.40;2.72;;;7.70;99.90;;;;;;5086245;28;20044;-75
2022/12/26 13:01:05;;;;;;;15.07;2.38;;;7.70;99.90;;;;;;5067945;28;20040;-75
2022/12/26 13:04:04;;;;;;;14.80;2.67;;;7.80;99.90;;;;;;5068815;28;20055;-76
2022/12/26 13:06:35;;;;;;;12.27;3.10;;;7.80;99.90;;;;;;5067572;28;20067;-77
2022/12/26 13:09:17;;;;;;;15.30;2.97;;;7.80;99.90;;;;;;5087191;28;20491;-75
2022/12/26 13:11:57;;;;;;;15.23;3.08;;;7.80;99.90;;;;;;5085030;28;20048;-78
2022/12/26 13:14:30;;;;;;;15.32;2.55;;;7.80;99.90;;;;;;5081281;28;20704;-76
2022/12/26 13:17:04;;;;;;;14.68;2.67;;;7.80;99.90;;;;;;5082551;28;20048;-78
2022/12/26 13:19:39;;;;;;;12.75;2.53;;;7.80;99.90;;;;;;5084921;28;20134;-79
2022/12/26 13:22:22;;;;;;;10.90;3.08;;;7.80;99.90;;;;;;5063353;28;20052;-79
2022/12/26 13:24:57;;;;;;;15.68;2.88;;;7.80;99.90;;;;;;5068149;28;20048;-80
2022/12/26 13:27:34;;;;;;;17.83;2.90;;;7.80;99.90;;;;;;5065806;28;20048;-78
2022/12/26 13:30:00;;;;;;;14.63;3.27;;;7.70;99.90;;;;;;5068224;28;20040;-75
2022/12/26 13:32:27;;;;;;;13.80;2.67;;;7.80;99.90;;;;;;5086652;28;20101;-76
2022/12/26 13:34:57;;;;;;;17.15;2.75;;;7.70;99.90;;;;;;5083804;28;20044;-75
2022/12/26 13:37:37;;;;;;;14.15;2.58;;;7.80;99.90;;;;;;5065878;28;20040;-76
2022/12/26 13:40:12;;;;;;;13.52;2.58;;;7.70;99.90;;;;;;5085861;28;20093;-78
2022/12/26 13:45:36;;;;;;;18.88;8.73;;;7.70;99.90;;;;;;5079561;28;20044;-75
2022/12/26 13:48:17;;;;;;;15.90;2.50;;;7.60;99.90;;;;;;5081198;28;20047;-79
2022/12/26 13:50:59;;;;;;;14.38;3.30;;;7.70;99.90;;;;;;5088606;28;20044;-78
2022/12/26 13:53:24;;;;;;;22.95;3.60;;;7.70;99.90;;;;;;5083449;28;20052;-78
2022/12/26 13:55:57;;;;;;;15.73;2.95;;;7.70;99.90;;;;;;5085150;28;20046;-77
2022/12/26 13:58:44;;;;;;;16.58;3.17;;;7.60;99.90;;;;;;5056979;28;20461;-81
2022/12/26 14:01:10;;;;;;;;;;;7.60;99.90;;;;;;5085420;28;20048;-78
2022/12/26 14:03:53;;;;;;;12.93;2.35;;;7.50;99.90;;;;;;5101146;28;19935;-78
2022/12/26 14:06:25;;;;;;;17.23;3.60;;;7.50;99.90;;;;;;5065220;28;20070;-77
2022/12/26 14:09:09;;;;;;;15.20;2.45;;;7.40;99.90;;;;;;5067533;28;20048;-77
2022/12/26 14:11:56;;;;;;;13.88;2.78;;;7.40;99.90;;;;;;5067954;28;20048;-84
2022/12/26 14:14:31;;;;;;;;;;;7.40;99.90;;;;;;5079833;28;20487;-79
2022/12/26 14:17:04;;;;;;;15.75;2.88;;;7.30;99.90;;;;;;5081274;28;19928;-75
2022/12/26 14:20:14;;;;;;;16.15;3.03;;;7.30;99.90;;;;;;5074401;28;20471;-81
2022/12/26 14:23:08;;;;;;;13.77;3.35;;;7.30;99.90;;;;;;5086137;28;20056;-76
2022/12/26 14:25:52;;;;;;;11.55;2.78;;;7.30;99.90;;;;;;5083407;28;20052;-76
2022/12/26 14:28:29;;;;;;;14.25;2.70;;;7.20;99.90;;;;;;5084923;28;20491;-80
2022/12/26 14:31:21;;;;;;;17.65;3.08;;;7.20;99.90;;;;;;5081275;28;20036;-79
2022/12/26 14:34:15;;;;;;;15.20;3.20;;;7.20;99.90;;;;;;5084937;28;20044;-82
2022/12/26 14:36:55;;;;;;;14.23;3.13;;;7.10;99.90;;;;;;5080888;28;20139;-82
2022/12/26 14:40:01;;;;;;;15.73;3.15;;;7.10;99.90;;;;;;5070783;28;20051;-83
2022/12/26 14:45:33;;;;;;;13.50;3.55;;;7.00;99.90;;;;;;5075149;28;20143;-83
2022/12/26 14:47:59;;;;;;;16.92;3.58;;;7.00;99.90;;;;;;5073769;28;20080;-82
2022/12/26 14:50:31;;;;;;;20.48;4.05;;;7.00;99.90;;;;;;5087973;28;20099;-85
2022/12/26 14:53:15;;;;;;;17.35;3.53;;;6.80;99.90;;;;;;5086226;28;20476;-77
2022/12/26 14:55:46;;;;;;;15.52;3.70;;;6.90;99.90;;;;;;5077568;28;20040;-88
2022/12/26 14:58:44;;;;;;;21.25;3.45;;;6.80;99.90;;;;;;5088687;28;20776;-87
2022/12/26 15:01:14;;;;;;;20.17;3.33;;;6.80;99.90;;;;;;5085703;28;20044;-77
2022/12/26 15:04:04;;;;;;;11.80;2.70;;;6.70;99.90;;;;;;5065213;28;20055;-75
2022/12/26 15:07:08;;;;;;;16.23;3.28;;;6.70;99.90;;;;;;5085981;28;20529;-74
2022/12/26 15:10:01;;;;;;;14.00;2.45;;;6.70;99.90;;;;;;5079914;28;20561;-79
2022/12/26 15:13:05;;;;;;;13.85;2.90;;;6.60;99.90;;;;;;5085043;28;20075;-78
2022/12/26 15:15:51;;;;;;;14.63;2.80;;;6.60;99.90;;;;;;5084637;28;20241;-81
2022/12/26 15:18:36;;;;;;;16.23;3.30;;;6.50;99.90;;;;;;5071195;28;20117;-81
2022/12/26 15:21:20;;;;;;;13.80;2.78;;;6.50;99.90;;;;;;5057005;28;20087;-83
2022/12/26 15:24:20;;;;;;;13.60;3.25;;;6.40;99.90;;;;;;5085307;28;20036;-77